Time;durP1;ratioP1;P1;durP2;ratioP2;P2;SDS_P1;SDS_P2;PMS_P1;PMS_P2;Temp;Humidity;BMP_temperature;BMP_pressure;BME280_temperature;BME280_humidity;BME280_pressure;Samples;Min_cycle;Max_cycle;Signal;HPM_P1;HPM_P2
2023/12/09 00:01:00;;;;;;;;;;;;;;;1.97;92.60;100872.09;4182367;28;20423;-94
2023/12/09 00:03:24;;;;;;;;;;;;;;;1.97;92.46;100873.91;4205989;28;19934;-94
2023/12/09 00:05:45;;;;;;;;;;;;;;;1.96;92.79;100870.41;4188744;28;19932;-93
2023/12/09 00:08:06;;;;;;;;;;;;;;;1.97;92.54;100874.78;4176839;28;19931;-93
2023/12/09 00:10:27;;;;;;;;;;;;;;;1.99;92.77;100877.28;4166787;28;19960;-94
2023/12/09 00:12:53;;;;;;;;;;;;;;;1.96;92.64;100875.72;4203408;28;19977;-91
2023/12/09 00:15:15;;;;;;;;;;;;;;;1.94;92.71;100883.00;4194374;28;19931;-91
2023/12/09 00:17:35;;;;;;;;;;;;;;;1.96;93.02;100881.06;4189702;28;19960;-90
2023/12/09 00:19:56;;;;;;;;;;;;;;;1.99;92.95;100879.94;4190928;28;19999;-90
2023/12/09 00:22:23;;;;;;;;;;;;;;;1.95;92.80;100882.00;4182351;28;20012;-90
2023/12/09 00:24:53;;;;;;;;;;;;;;;1.95;93.14;100883.84;4182715;28;20039;-92
2023/12/09 00:27:18;;;;;;;;;;;;;;;1.95;93.14;100879.34;4173545;28;19974;-90
2023/12/09 00:29:46;;;;;;;;;;;;;;;1.96;93.02;100869.56;4187295;28;19931;-92
2023/12/09 00:32:14;;;;;;;;;;;;;;;1.95;93.29;100870.53;4174078;28;20620;-92
2023/12/09 00:34:35;;;;;;;;;;;;;;;1.95;93.22;100871.34;4180314;28;19932;-93
2023/12/09 00:36:59;;;;;;;;;;;;;;;1.94;93.18;100876.81;4179087;28;19931;-94
2023/12/09 00:39:20;;;;;;;;;;;;;;;1.94;93.44;100874.13;4188830;28;19932;-94
2023/12/09 00:41:42;;;;;;;;;;;;;;;1.92;93.39;100870.75;4188948;28;19939;-94
2023/12/09 00:44:08;;;;;;;;;;;;;;;1.93;93.41;100869.81;4175263;28;19971;-92
2023/12/09 00:46:28;;;;;;;;;;;;;;;1.95;93.36;100882.00;4173681;28;20072;-93
2023/12/09 00:48:51;;;;;;;;;;;;;;;1.96;93.11;100883.72;4188008;28;19931;-92
2023/12/09 00:51:14;;;;;;;;;;;;;;;1.96;93.30;100881.06;4189031;28;20034;-93
2023/12/09 00:53:34;;;;;;;;;;;;;;;1.95;93.32;100889.16;4191842;28;19984;-93
2023/12/09 00:55:56;;;;;;;;;;;;;;;1.94;93.35;100891.00;4164246;28;20335;-90
2023/12/09 00:58:16;;;;;;;;;;;;;;;1.94;93.48;100888.31;4210873;28;19985;-90
2023/12/09 01:00:37;;;;;;;;;;;;;;;1.93;93.47;100881.28;4172851;28;19932;-91
2023/12/09 01:02:58;;;;;;;;;;;;;;;1.94;93.58;100887.47;4186482;28;19970;-90
2023/12/09 01:05:29;;;;;;;;;;;;;;;1.94;93.36;100888.31;4183141;28;20454;-91
2023/12/09 01:07:49;;;;;;;;;;;;;;;1.95;93.53;100891.84;4193767;28;20031;-91
2023/12/09 01:10:14;;;;;;;;;;;;;;;1.93;93.67;100894.59;4197418;28;19962;-90
2023/12/09 01:12:35;;;;;;;;;;;;;;;1.94;93.46;100893.66;4157117;28;20019;-89
2023/12/09 01:14:55;;;;;;;;;;;;;;;1.95;93.67;100895.34;4194410;28;19954;-91
2023/12/09 01:17:41;;;;;;;;;;;;;;;1.95;93.50;100902.50;4200318;28;20341;-91
2023/12/09 01:20:03;;;;;;;;;;;;;;;1.95;93.73;100892.66;4182230;28;20008;-90
2023/12/09 01:22:25;;;;;;;;;;;;;;;1.98;93.40;100899.59;4180638;28;20067;-91
2023/12/09 01:24:46;;;;;;;;;;;;;;;2.00;93.44;100902.13;4191370;28;19935;-91
2023/12/09 01:27:07;;;;;;;;;;;;;;;2.00;93.36;100910.13;4196414;28;19980;-89
2023/12/09 01:29:27;;;;;;;;;;;;;;;1.97;93.70;100898.75;4207115;28;19935;-90
2023/12/09 01:31:55;;;;;;;;;;;;;;;1.97;93.79;100905.88;4192687;28;20374;-88
2023/12/09 01:34:16;;;;;;;;;;;;;;;1.99;93.79;100906.59;4189405;28;20295;-90
2023/12/09 01:36:46;;;;;;;;;;;;;;;2.00;93.82;100904.81;4181527;28;20008;-92
2023/12/09 01:39:29;;;;;;;;;;;;;;;2.00;93.68;100905.63;4203099;28;19931;-89
2023/12/09 01:42:02;;;;;;;;;;;;;;;2.01;93.84;100910.00;4203330;28;19931;-92
2023/12/09 01:44:39;;;;;;;;;;;;;;;2.01;93.77;100904.69;4189067;28;19975;-90
2023/12/09 01:47:00;;;;;;;;;;;;;;;2.02;93.83;100895.69;4198736;28;19947;-92
2023/12/09 01:49:23;;;;;;;;;;;;;;;2.02;93.72;100890.38;4175147;28;19931;-92
2023/12/09 01:51:46;;;;;;;;;;;;;;;2.06;93.56;100885.69;4195451;28;19947;-94
2023/12/09 01:54:07;;;;;;;;;;;;;;;2.03;93.59;100897.41;4184918;28;19931;-91
2023/12/09 01:56:30;;;;;;;;;;;;;;;2.04;93.58;100887.59;4158200;28;20008;-92
2023/12/09 01:58:50;;;;;;;;;;;;;;;2.06;93.51;100893.69;4190833;28;19931;-91
2023/12/09 02:01:11;;;;;;;;;;;;;;;2.04;93.66;100895.59;4183642;28;20303;-92
2023/12/09 02:03:33;;;;;;;;;;;;;;;2.04;93.46;100893.78;4187945;28;19931;-90
2023/12/09 02:05:53;;;;;;;;;;;;;;;2.06;93.73;100901.66;4200718;28;19931;-91
2023/12/09 02:08:14;;;;;;;;;;;;;;;2.08;93.23;100899.72;4192422;28;19990;-92
2023/12/09 02:10:37;;;;;;;;;;;;;;;2.09;93.31;100906.75;4169632;28;19932;-92
2023/12/09 02:13:16;;;;;;;;;;;;;;;2.07;93.52;100890.91;4196021;28;19970;-92
2023/12/09 02:15:40;;;;;;;;;;;;;;;2.07;93.57;100893.56;4192460;28;20307;-92
2023/12/09 02:18:10;;;;;;;;;;;;;;;2.09;93.67;100888.09;4204937;28;19932;-92
2023/12/09 02:20:31;;;;;;;;;;;;;;;2.08;93.25;100884.56;4190357;28;20323;-90
2023/12/09 02:22:59;;;;;;;;;;;;;;;2.07;93.55;100880.22;4158721;28;19931;-93
2023/12/09 02:25:20;;;;;;;;;;;;;;;2.08;93.61;100886.41;4192943;28;19947;-91
2023/12/09 02:27:43;;;;;;;;;;;;;;;2.08;93.64;100891.72;4165502;28;19983;-91
2023/12/09 02:30:09;;;;;;;;;;;;;;;2.08;93.72;100892.56;4181600;28;19931;-91
2023/12/09 02:32:30;;;;;;;;;;;;;;;2.09;93.50;100894.28;4181456;28;20429;-90
2023/12/09 02:34:52;;;;;;;;;;;;;;;2.12;93.50;100895.88;4180164;28;19932;-91
2023/12/09 02:37:13;;;;;;;;;;;;;;;2.10;93.90;100889.78;4160615;28;20316;-91
2023/12/09 02:39:35;;;;;;;;;;;;;;;2.11;93.79;100888.81;4175795;28;19932;-91
2023/12/09 02:41:56;;;;;;;;;;;;;;;2.13;93.72;100890.41;4196264;28;19931;-92
2023/12/09 02:44:22;;;;;;;;;;;;;;;2.16;93.27;100887.53;4205115;28;19996;-92
2023/12/09 02:46:45;;;;;;;;;;;;;;;2.16;93.21;100884.84;4196937;28;19947;-92
2023/12/09 02:49:10;;;;;;;;;;;;;;;2.16;93.29;100881.31;4216036;28;20424;-91
2023/12/09 02:51:41;;;;;;;;;;;;;;;2.18;93.02;100882.06;4203318;28;20023;-92
2023/12/09 02:54:05;;;;;;;;;;;;;;;2.20;93.24;100873.97;4172747;28;19951;-91
2023/12/09 02:56:28;;;;;;;;;;;;;;;2.17;93.32;100875.88;4189521;28;20028;-91
2023/12/09 02:58:49;;;;;;;;;;;;;;;2.21;93.37;100883.63;4208484;28;19947;-91
2023/12/09 03:01:12;;;;;;;;;;;;;;;2.20;93.30;100882.78;4208489;28;19931;-94
2023/12/09 03:03:36;;;;;;;;;;;;;;;2.21;93.23;100883.63;4202195;28;19931;-91
2023/12/09 03:06:12;;;;;;;;;;;;;;;;;;;;;
2023/12/09 03:08:50;;;;;;;;;;;;;;;2.23;92.99;100881.72;4195119;28;19982;-92
2023/12/09 03:11:11;;;;;;;;;;;;;;;2.23;93.11;100887.03;4175663;28;19985;-91
2023/12/09 03:13:35;;;;;;;;;;;;;;;2.22;93.33;100883.50;4182755;28;19963;-91
2023/12/09 03:15:55;;;;;;;;;;;;;;;2.22;93.39;100883.50;4187766;28;19994;-92
2023/12/09 03:18:18;;;;;;;;;;;;;;;2.22;93.46;100880.00;4192285;28;19970;-91
2023/12/09 03:20:43;;;;;;;;;;;;;;;2.22;93.48;100882.66;4196715;28;19979;-92
2023/12/09 03:23:05;;;;;;;;;;;;;;;2.23;93.66;100892.38;4182514;28;20445;-92
2023/12/09 03:25:25;;;;;;;;;;;;;;;2.23;93.48;100887.03;4193235;28;19931;-91
2023/12/09 03:27:47;;;;;;;;;;;;;;;2.25;93.55;100887.75;4185549;28;20394;-92
2023/12/09 03:30:32;;;;;;;;;;;;;;;2.26;93.23;100887.66;4179601;28;19931;-91
2023/12/09 03:32:59;;;;;;;;;;;;;;;2.26;93.21;100890.31;4164735;28;19994;-91
2023/12/09 03:35:23;;;;;;;;;;;;;;;2.28;93.32;100888.38;4149788;28;20391;-91
2023/12/09 03:37:53;;;;;;;;;;;;;;;2.28;93.42;100896.34;4142993;28;20435;-91
2023/12/09 03:40:19;;;;;;;;;;;;;;;2.28;93.49;100892.84;4146231;28;19933;-90
2023/12/09 03:45:47;;;;;;;;;;;;;;;2.30;93.32;100888.25;4181009;28;19927;-89
2023/12/09 03:48:15;;;;;;;;;;;;;;;2.30;93.63;100891.78;4182649;28;19935;-89
2023/12/09 03:54:21;;;;;;;;;;;;;;;2.30;93.57;100889.13;4147298;28;19943;-89
2023/12/09 03:56:47;;;;;;;;;;;;;;;2.31;93.66;100893.47;4151405;28;20012;-91
2023/12/09 03:59:10;;;;;;;;;;;;;;;2.32;93.32;100889.84;4138796;28;19976;-90
2023/12/09 04:01:35;;;;;;;;;;;;;;;2.33;93.32;100893.34;4123287;28;20295;-90
2023/12/09 04:10:45;;;;;;;;;;;;;;;2.36;93.53;100902.91;4158693;28;20400;-90
2023/12/09 04:13:21;;;;;;;;;;;;;;;2.36;93.14;100898.44;4165127;28;19931;-90
2023/12/09 04:18:40;;;;;;;;;;;;;;;2.38;93.36;100901.81;4151913;28;19987;-91
2023/12/09 04:21:04;;;;;;;;;;;;;;;2.40;93.08;100899.91;4118988;28;20419;-89
2023/12/09 04:23:51;;;;;;;;;;;;;;;2.40;92.99;100901.69;4150142;28;19932;-89
2023/12/09 04:26:43;;;;;;;;;;;;;;;2.41;92.81;100898.06;4152645;28;19932;-90
2023/12/09 04:29:06;;;;;;;;;;;;;;;2.41;93.08;100908.72;4151540;28;19996;-90
2023/12/09 04:31:37;;;;;;;;;;;;;;;2.42;92.87;100908.63;4152533;28;20842;-91
2023/12/09 04:44:08;;;;;;;;;;;;;;;2.44;92.98;100901.34;4182129;28;19979;-90
2023/12/09 04:46:52;;;;;;;;;;;;;;;2.45;92.79;100896.88;4151112;28;19932;-90
2023/12/09 04:49:42;;;;;;;;;;;;;;;2.45;92.77;100899.53;4163580;28;20304;-90
2023/12/09 04:52:34;;;;;;;;;;;;;;;2.46;92.71;100902.09;4151919;28;19932;-90
2023/12/09 05:02:00;;;;;;;;;;;;;;;2.48;92.25;100886.81;4182402;28;19927;-90
2023/12/09 05:04:22;;;;;;;;;;;;;;;2.49;92.46;100891.19;4155099;28;20312;-90
2023/12/09 05:07:09;;;;;;;;;;;;;;;2.51;91.65;100894.56;4169839;28;19932;-92
2023/12/09 05:09:39;;;;;;;;;;;;;;;2.51;92.00;100896.38;4157864;28;19960;-90
2023/12/09 05:12:28;;;;;;;;;;;;;;;2.52;91.74;100890.06;4176043;28;20010;-90
2023/12/09 05:14:51;;;;;;;;;;;;;;;2.51;91.52;100883.91;4172924;28;19932;-89
2023/12/09 05:17:40;;;;;;;;;;;;;;;2.53;91.89;100887.28;4150698;28;19931;-89
2023/12/09 05:20:03;;;;;;;;;;;;;;;2.54;91.54;100877.50;4150755;28;19931;-90
2023/12/09 05:22:24;;;;;;;;;;;;;;;2.54;91.58;100880.16;4165631;28;20352;-91
2023/12/09 05:25:06;;;;;;;;;;;;;;;2.56;91.52;100872.88;4151734;28;19933;-91
2023/12/09 05:38:24;;;;;;;;;;;;;;;2.60;90.82;100868.13;4128160;28;20022;-90
2023/12/09 05:41:47;;;;;;;;;;;;;;;2.58;90.85;100864.75;4123871;28;19973;-90
2023/12/09 05:44:44;;;;;;;;;;;;;;;2.60;90.67;100863.66;4124949;28;20017;-88
2023/12/09 05:47:06;;;;;;;;;;;;;;;2.60;90.70;100861.00;4122971;28;19932;-90
2023/12/09 05:49:51;;;;;;;;;;;;;;;2.63;90.61;100857.22;4175755;28;19931;-88
2023/12/09 05:52:14;;;;;;;;;;;;;;;2.62;90.43;100848.38;4162353;28;19988;-90
2023/12/09 05:54:38;;;;;;;;;;;;;;;2.61;90.45;100852.00;4186071;28;19931;-90
2023/12/09 06:03:58;;;;;;;;;;;;;;;2.66;90.04;100852.47;4185382;28;19928;-90
2023/12/09 06:06:21;;;;;;;;;;;;;;;2.66;90.28;100848.97;4166511;28;19940;-87
2023/12/09 06:08:42;;;;;;;;;;;;;;;2.66;90.26;100860.47;4168118;28;19932;-86
2023/12/09 06:11:05;;;;;;;;;;;;;;;2.67;90.20;100856.03;4177364;28;19932;-87
2023/12/09 06:13:26;;;;;;;;;;;;;;;2.66;90.15;100855.16;4174062;28;20441;-90
2023/12/09 06:15:49;;;;;;;;;;;;;;;2.68;89.86;100852.34;4167906;28;20375;-91
2023/12/09 06:18:14;;;;;;;;;;;;;;;2.70;90.06;100845.09;4172796;28;19931;-89
2023/12/09 06:20:37;;;;;;;;;;;;;;;2.70;90.19;100848.59;4181298;28;19931;-89
2023/12/09 06:22:58;;;;;;;;;;;;;;;2.72;89.93;100842.31;4172805;28;19980;-88
2023/12/09 06:25:19;;;;;;;;;;;;;;;2.72;90.12;100853.81;4160824;28;19944;-88
2023/12/09 06:27:41;;;;;;;;;;;;;;;2.72;89.83;100848.50;4191316;28;20326;-85
2023/12/09 06:30:02;;;;;;;;;;;;;;;2.74;89.85;100856.38;4161012;28;20458;-87
2023/12/09 06:32:24;;;;;;;;;;;;;;;2.73;89.99;100852.88;4174994;28;19975;-87
2023/12/09 06:34:45;;;;;;;;;;;;;;;2.74;89.70;100840.38;4189857;28;19956;-87
2023/12/09 06:37:06;;;;;;;;;;;;;;;2.75;90.04;100845.56;4188248;28;19970;-86
2023/12/09 06:39:26;;;;;;;;;;;;;;;2.76;89.84;100844.63;4190176;28;20494;-88
2023/12/09 06:41:47;;;;;;;;;;;;;;;2.76;89.91;100843.75;4175333;28;19931;-89
2023/12/09 06:44:11;;;;;;;;;;;;;;;2.76;89.62;100844.63;4190468;28;19971;-90
2023/12/09 06:46:32;;;;;;;;;;;;;;;2.77;89.63;100842.78;4176955;28;19951;-88
2023/12/09 06:48:53;;;;;;;;;;;;;;;2.77;89.62;100853.44;4189472;28;20420;-89
2023/12/09 06:51:17;;;;;;;;;;;;;;;2.79;89.88;100851.50;4187376;28;19971;-85
2023/12/09 06:53:38;;;;;;;;;;;;;;;2.80;89.56;100847.88;4170466;28;20879;-84
2023/12/09 06:56:00;;;;;;;;;;;;;;;2.82;89.70;100851.25;4162369;28;19972;-88
2023/12/09 06:58:21;;;;;;;;;;;;;;;2.83;89.65;100856.47;4173711;28;20004;-89
2023/12/09 07:00:43;;;;;;;;;;;;;;;2.83;89.74;100856.47;4173126;28;19931;-87
2023/12/09 07:03:04;;;;;;;;;;;;;;;2.85;89.45;100872.34;4169651;28;19956;-87
2023/12/09 07:05:26;;;;;;;;;;;;;;;2.89;89.41;100884.47;4191097;28;19938;-90
2023/12/09 07:07:48;;;;;;;;;;;;;;;2.92;89.57;100880.72;4151727;28;19976;-92
2023/12/09 07:10:12;;;;;;;;;;;;;;;2.91;89.56;100873.69;4184017;28;19931;-90
2023/12/09 07:12:38;;;;;;;;;;;;;;;2.90;89.71;100875.50;4180326;28;20439;-90
2023/12/09 07:15:00;;;;;;;;;;;;;;;2.91;89.45;100874.53;4168064;28;19947;-92
2023/12/09 07:17:27;;;;;;;;;;;;;;;2.90;89.49;100864.84;4145935;28;20308;-92
2023/12/09 07:19:49;;;;;;;;;;;;;;;2.92;89.45;100878.91;4192908;28;19944;-91
2023/12/09 07:22:11;;;;;;;;;;;;;;;2.94;89.40;100868.94;4183552;28;19916;-92
2023/12/09 07:24:32;;;;;;;;;;;;;;;2.92;89.65;100862.88;4178409;28;19932;-89
2023/12/09 07:26:54;;;;;;;;;;;;;;;2.93;89.44;100874.41;4169385;28;19932;-91
2023/12/09 07:29:16;;;;;;;;;;;;;;;2.94;89.67;100874.28;4154877;28;19936;-90
2023/12/09 07:31:40;;;;;;;;;;;;;;;2.93;89.57;100867.25;4169509;28;20639;-88
2023/12/09 07:34:07;;;;;;;;;;;;;;;2.94;89.74;100870.78;4158160;28;19937;-88
2023/12/09 07:36:28;;;;;;;;;;;;;;;2.96;89.72;100866.16;4157490;28;19959;-88
2023/12/09 07:38:51;;;;;;;;;;;;;;;2.95;89.79;100867.97;4172136;28;19933;-89
2023/12/09 07:41:12;;;;;;;;;;;;;;;2.96;89.32;100859.00;4157720;28;19937;-89
2023/12/09 07:43:32;;;;;;;;;;;;;;;2.96;89.84;100856.34;4158023;28;20000;-91
2023/12/09 07:45:53;;;;;;;;;;;;;;;2.97;89.83;100838.50;4172897;28;19936;-88
2023/12/09 07:48:17;;;;;;;;;;;;;;;2.98;89.72;100861.53;4149246;28;19952;-93
2023/12/09 07:50:51;;;;;;;;;;;;;;;2.97;89.62;100858.03;4145440;28;19993;-90
2023/12/09 07:53:14;;;;;;;;;;;;;;;2.99;89.51;100865.91;4178105;28;19979;-88
2023/12/09 07:55:37;;;;;;;;;;;;;;;2.98;89.79;100862.41;4182744;28;19940;-90
2023/12/09 07:57:59;;;;;;;;;;;;;;;2.99;89.58;100864.06;4164617;28;19932;-90
2023/12/09 08:00:20;;;;;;;;;;;;;;;3.00;89.38;100862.28;4172720;28;19936;-89
2023/12/09 08:02:42;;;;;;;;;;;;;;;3.00;89.44;100871.09;4177512;28;19955;-92
2023/12/09 08:05:03;;;;;;;;;;;;;;;3.00;89.65;100860.44;4175784;28;19932;-91
2023/12/09 08:07:32;;;;;;;;;;;;;;;3.02;89.50;100860.31;4172823;28;19971;-89
2023/12/09 08:09:53;;;;;;;;;;;;;;;3.03;89.82;100854.00;4159961;28;19931;-90
2023/12/09 08:12:14;;;;;;;;;;;;;;;3.04;89.84;100850.34;4165317;28;19984;-89
2023/12/09 08:14:41;;;;;;;;;;;;;;;3.05;89.63;100866.25;4147437;28;19972;-90
2023/12/09 08:17:34;;;;;;;;;;;;;;;;;;;;;
2023/12/09 08:20:05;;;;;;;;;;;;;;;3.07;89.60;100850.09;4154302;28;19972;-92
2023/12/09 08:22:27;;;;;;;;;;;;;;;3.08;89.74;100853.63;4143538;28;20300;-91
2023/12/09 08:24:52;;;;;;;;;;;;;;;3.09;89.47;100860.66;4155277;28;20017;-90
2023/12/09 08:27:17;;;;;;;;;;;;;;;3.08;89.50;100867.81;4169725;28;19935;-90
2023/12/09 08:29:38;;;;;;;;;;;;;;;3.09;89.83;100863.31;4170339;28;20315;-90
2023/12/09 08:31:59;;;;;;;;;;;;;;;3.09;89.55;100856.19;4156421;28;20038;-90
2023/12/09 08:34:23;;;;;;;;;;;;;;;3.10;89.55;100857.84;4144852;28;19940;-88
2023/12/09 08:36:44;;;;;;;;;;;;;;;3.11;89.45;100851.56;4187359;28;20405;-90
2023/12/09 08:39:04;;;;;;;;;;;;;;;3.11;89.77;100856.91;4172463;28;20038;-90
2023/12/09 08:41:31;;;;;;;;;;;;;;;3.13;89.55;100856.78;4172282;28;20025;-89
2023/12/09 08:43:56;;;;;;;;;;;;;;;3.14;89.87;100861.16;4184454;28;20434;-90
2023/12/09 08:46:17;;;;;;;;;;;;;;;3.15;89.84;100854.81;4160481;28;19933;-89
2023/12/09 08:48:38;;;;;;;;;;;;;;;3.15;89.72;100865.50;4158044;28;19964;-89
2023/12/09 08:50:58;;;;;;;;;;;;;;;3.16;89.91;100856.53;4171590;28;19965;-90
2023/12/09 08:53:19;;;;;;;;;;;;;;;3.17;89.66;100860.91;4186101;28;19935;-89
2023/12/09 08:55:40;;;;;;;;;;;;;;;3.17;89.89;100864.41;4188229;28;20285;-89
2023/12/09 08:58:03;;;;;;;;;;;;;;;3.17;89.88;100864.41;4146199;28;19975;-89
2023/12/09 09:00:26;;;;;;;;;;;;;;;3.18;90.08;100859.91;4187818;28;19943;-90
2023/12/09 09:02:55;;;;;;;;;;;;;;;3.19;90.16;100853.59;4170423;28;19931;-90
2023/12/09 09:05:15;;;;;;;;;;;;;;;3.19;89.95;100851.75;4173627;28;19935;-88
2023/12/09 09:07:40;;;;;;;;;;;;;;;3.20;90.26;100850.81;4172725;28;20403;-89
2023/12/09 09:10:07;;;;;;;;;;;;;;;3.21;90.09;100848.97;4172571;28;19998;-90
2023/12/09 09:12:50;;;;;;;;;;;;;;;3.21;89.89;100843.63;4176325;28;20450;-89
2023/12/09 09:15:14;;;;;;;;;;;;;;;3.22;89.84;100837.34;4191107;28;19947;-88
2023/12/09 09:17:35;;;;;;;;;;;;;;;3.23;90.20;100828.34;4175755;28;19983;-90
2023/12/09 09:19:55;;;;;;;;;;;;;;;3.23;90.01;100829.19;4161626;28;20358;-90
2023/12/09 09:22:16;;;;;;;;;;;;;;;3.25;89.93;100834.41;4175688;28;20454;-89
2023/12/09 09:24:37;;;;;;;;;;;;;;;3.25;90.10;100839.75;4176670;28;20362;-91
2023/12/09 09:27:00;;;;;;;;;;;;;;;3.26;90.17;100833.44;4189455;28;19935;-91
2023/12/09 09:29:22;;;;;;;;;;;;;;;3.27;90.38;100829.78;4161428;28;20453;-91
2023/12/09 09:32:03;;;;;;;;;;;;;;;3.28;90.01;100828.81;4161904;28;20387;-93
2023/12/09 09:34:26;;;;;;;;;;;;;;;3.28;90.28;100831.50;4176032;28;19932;-91
2023/12/09 09:36:50;;;;;;;;;;;;;;;3.30;90.34;100831.34;4176004;28;19932;-89
2023/12/09 09:39:13;;;;;;;;;;;;;;;3.31;90.49;100828.56;4163460;28;19936;-88
2023/12/09 09:41:38;;;;;;;;;;;;;;;3.31;90.26;100823.22;4158047;28;19932;-89
2023/12/09 09:44:00;;;;;;;;;;;;;;;3.34;90.34;100820.31;4165096;28;19932;-89
2023/12/09 09:46:21;;;;;;;;;;;;;;;3.35;90.61;100821.13;4177630;28;19940;-89
2023/12/09 09:48:44;;;;;;;;;;;;;;;3.34;90.72;100820.31;4161800;28;20060;-90
2023/12/09 09:51:05;;;;;;;;;;;;;;;3.35;90.48;100819.31;4175056;28;19939;-88
2023/12/09 09:53:32;;;;;;;;;;;;;;;3.36;90.65;100826.34;4193353;28;20021;-91
2023/12/09 09:59:26;;;;;;;;;;;;;;;3.38;90.91;100818.22;4137689;28;19946;-91
2023/12/09 10:05:16;;;;;;;;;;;;;;;3.40;90.96;100795.75;4174670;28;20024;-91
2023/12/09 10:07:44;;;;;;;;;;;;;;;3.40;90.96;100798.44;4157987;28;19936;-90
2023/12/09 10:13:14;;;;;;;;;;;;;;;3.43;90.97;100782.16;4176681;28;19932;-91
2023/12/09 10:15:54;;;;;;;;;;;;;;;3.43;90.99;100786.63;4181387;28;19982;-91
2023/12/09 10:22:15;;;;;;;;;;;;;;;3.45;91.03;100767.81;4101577;28;19961;-91
2023/12/09 10:25:09;;;;;;;;;;;;;;;3.46;90.87;100769.50;4180826;28;19944;-91
2023/12/09 10:27:57;;;;;;;;;;;;;;;3.47;91.08;100772.03;4205846;28;19932;-91
2023/12/09 10:33:37;;;;;;;;;;;;;;;3.48;91.01;100765.75;4126474;28;19973;-90
2023/12/09 10:36:31;;;;;;;;;;;;;;;3.50;91.02;100757.59;4120136;28;20070;-91
2023/12/09 10:42:36;;;;;;;;;;;;;;;;;;;;;
2023/12/09 10:45:58;;;;;;;;;;;;;;;3.53;91.06;100746.66;4198862;28;19982;-91
2023/12/09 10:51:26;;;;;;;;;;;;;;;3.55;91.03;100728.66;4184395;28;19935;-91
2023/12/09 10:56:45;;;;;;;;;;;;;;;3.56;91.13;100720.53;4197596;28;19951;-91
2023/12/09 11:12:47;;;;;;;;;;;;;;;;;;;;;
2023/12/09 11:15:41;;;;;;;;;;;;;;;;;;;;;
2023/12/09 11:25:29;;;;;;;;;;;;;;;;;;;;;
2023/12/09 11:31:17;;;;;;;;;;;;;;;3.68;91.47;100665.19;4154128;28;20391;-92
2023/12/09 11:33:41;;;;;;;;;;;;;;;3.69;91.40;100660.72;4127943;28;20020;-92
2023/12/09 11:36:28;;;;;;;;;;;;;;;3.69;91.61;100660.72;4182385;28;19975;-91
2023/12/09 11:38:55;;;;;;;;;;;;;;;3.71;91.50;100656.91;4189194;28;19935;-92
2023/12/09 11:41:46;;;;;;;;;;;;;;;3.72;91.46;100653.25;4142202;28;20014;-92
2023/12/09 11:44:41;;;;;;;;;;;;;;;;;;;;;
2023/12/09 11:47:28;;;;;;;;;;;;;;;3.75;91.71;100646.81;4181514;28;19933;-92
2023/12/09 11:49:58;;;;;;;;;;;;;;;3.75;91.49;100649.47;4170741;28;20008;-91
2023/12/09 11:52:30;;;;;;;;;;;;;;;3.75;91.58;100644.97;4179522;28;20283;-91
2023/12/09 11:54:59;;;;;;;;;;;;;;;3.77;91.56;100640.34;4174437;28;19935;-91
2023/12/09 11:57:22;;;;;;;;;;;;;;;3.77;91.70;100640.34;4174383;28;19992;-92
2023/12/09 11:59:45;;;;;;;;;;;;;;;3.78;91.89;100626.00;4159241;28;20295;-91
2023/12/09 12:02:06;;;;;;;;;;;;;;;3.79;91.90;100619.69;4173456;28;19955;-91
2023/12/09 12:04:33;;;;;;;;;;;;;;;3.80;92.01;100607.16;4159691;28;20041;-92
2023/12/09 12:06:56;;;;;;;;;;;;;;;3.81;91.88;100598.19;4174377;28;19936;-93
2023/12/09 12:09:17;;;;;;;;;;;;;;;3.83;92.23;100592.72;4187838;28;19979;-92
2023/12/09 12:11:39;;;;;;;;;;;;;;;3.84;92.23;100594.38;4188062;28;19931;-92
2023/12/09 12:14:00;;;;;;;;;;;;;;;3.84;92.30;100591.72;4160481;28;20134;-93
2023/12/09 12:16:22;;;;;;;;;;;;;;;3.84;92.11;100584.56;4146851;28;19933;-93
2023/12/09 12:19:00;;;;;;;;;;;;;;;3.85;92.16;100588.91;4161190;28;20001;-90
2023/12/09 12:21:31;;;;;;;;;;;;;;;3.86;92.37;100584.41;4159794;28;20361;-92
2023/12/09 12:23:58;;;;;;;;;;;;;;;3.86;92.06;100590.59;4186941;28;19984;-92
2023/12/09 12:26:19;;;;;;;;;;;;;;;3.88;92.20;100582.44;4189055;28;19939;-92
2023/12/09 12:28:41;;;;;;;;;;;;;;;3.88;92.49;100577.94;4162829;28;19964;-92
2023/12/09 12:31:06;;;;;;;;;;;;;;;3.89;92.19;100573.47;4142710;28;19932;-93
2023/12/09 12:33:28;;;;;;;;;;;;;;;3.90;92.25;100572.44;4188793;28;19935;-92
2023/12/09 12:36:10;;;;;;;;;;;;;;;3.91;92.34;100572.31;4187236;28;19952;-92
2023/12/09 12:38:31;;;;;;;;;;;;;;;3.91;92.57;100572.31;4173962;28;20319;-91
2023/12/09 12:41:02;;;;;;;;;;;;;;;3.93;92.69;100561.50;4171185;28;20471;-92
2023/12/09 12:43:30;;;;;;;;;;;;;;;3.95;92.84;100556.88;4175023;28;19939;-93
2023/12/09 12:45:55;;;;;;;;;;;;;;;3.95;92.58;100555.03;4158862;28;19992;-90
2023/12/09 12:48:27;;;;;;;;;;;;;;;3.97;92.77;100555.72;4171696;28;19985;-90
2023/12/09 12:50:58;;;;;;;;;;;;;;;4.00;92.95;100551.09;4148447;28;19932;-88
2023/12/09 12:53:18;;;;;;;;;;;;;;;4.01;92.92;100544.75;4168420;28;19936;-89
2023/12/09 12:55:39;;;;;;;;;;;;;;;4.03;92.97;100537.44;4180944;28;19952;-90
2023/12/09 12:58:02;;;;;;;;;;;;;;;4.03;92.87;100526.75;4182342;28;19967;-90
2023/12/09 13:00:25;;;;;;;;;;;;;;;4.04;93.04;100521.28;4173188;28;19939;-92
2023/12/09 13:02:48;;;;;;;;;;;;;;;4.06;92.89;100515.78;4159169;28;19945;-93
2023/12/09 13:05:09;;;;;;;;;;;;;;;4.08;93.21;100505.81;4173293;28;19931;-91
2023/12/09 13:07:32;;;;;;;;;;;;;;;4.08;92.74;100508.50;4173703;28;19932;-87
2023/12/09 13:09:54;;;;;;;;;;;;;;;4.09;92.81;100515.50;4172859;28;19932;-88
2023/12/09 13:12:15;;;;;;;;;;;;;;;4.09;92.80;100508.34;4174421;28;19932;-90
2023/12/09 13:14:39;;;;;;;;;;;;;;;4.11;93.18;100505.53;4158067;28;19931;-90
2023/12/09 13:17:00;;;;;;;;;;;;;;;4.12;92.87;100509.88;4173578;28;19936;-90
2023/12/09 13:19:21;;;;;;;;;;;;;;;4.13;93.09;100503.56;4175530;28;19936;-87
2023/12/09 13:21:42;;;;;;;;;;;;;;;4.13;92.97;100493.69;4186755;28;19956;-91
2023/12/09 13:24:05;;;;;;;;;;;;;;;4.14;92.97;100500.75;4173547;28;20031;-92
2023/12/09 13:26:28;;;;;;;;;;;;;;;4.14;93.09;100487.38;4158914;28;20407;-93
2023/12/09 13:28:49;;;;;;;;;;;;;;;4.15;93.18;100478.38;4173565;28;20485;-88
2023/12/09 13:31:16;;;;;;;;;;;;;;;4.17;93.32;100470.22;4159782;28;20626;-91
2023/12/09 13:33:39;;;;;;;;;;;;;;;4.19;93.45;100472.75;4173260;28;19936;-89
2023/12/09 13:36:00;;;;;;;;;;;;;;;4.18;93.21;100458.53;4144121;28;20029;-92
2023/12/09 13:38:34;;;;;;;;;;;;;;;;;;;;;
2023/12/09 13:40:56;;;;;;;;;;;;;;;4.21;93.62;100463.59;4185369;28;19974;-91
2023/12/09 13:43:20;;;;;;;;;;;;;;;4.22;93.33;100451.91;4174477;28;20386;-88
2023/12/09 13:45:45;;;;;;;;;;;;;;;4.24;93.72;100446.44;4186540;28;19932;-88
2023/12/09 13:48:18;;;;;;;;;;;;;;;4.25;93.39;100448.13;4186823;28;19931;-89
2023/12/09 13:50:50;;;;;;;;;;;;;;;4.26;93.59;100449.81;4154910;28;20387;-89
2023/12/09 13:53:13;;;;;;;;;;;;;;;4.27;93.48;100449.66;4158156;28;19975;-88
2023/12/09 13:55:33;;;;;;;;;;;;;;;4.28;93.32;100448.69;4187619;28;19940;-87
2023/12/09 13:57:53;;;;;;;;;;;;;;;4.30;93.42;100459.22;4172739;28;19931;-88
2023/12/09 14:00:16;;;;;;;;;;;;;;;4.30;93.24;100454.72;4154155;28;20451;-90
2023/12/09 14:02:36;;;;;;;;;;;;;;;4.31;92.98;100456.41;4161536;28;19932;-87
2023/12/09 14:04:59;;;;;;;;;;;;;;;4.33;93.19;100453.59;4181104;28;19971;-88
2023/12/09 14:07:32;;;;;;;;;;;;;;;4.35;93.20;100446.25;4160338;28;19968;-90
2023/12/09 14:09:53;;;;;;;;;;;;;;;4.37;92.90;100454.16;4183589;28;20475;-88
2023/12/09 14:12:14;;;;;;;;;;;;;;;4.35;92.78;100451.63;4157531;28;19936;-89
2023/12/09 14:14:35;;;;;;;;;;;;;;;4.38;92.80;100459.34;4156647;28;20411;-86
2023/12/09 14:16:55;;;;;;;;;;;;;;;4.40;92.80;100451.19;4178287;28;19979;-86
2023/12/09 14:19:16;;;;;;;;;;;;;;;4.41;92.78;100452.88;4189628;28;19935;-86
2023/12/09 14:21:39;;;;;;;;;;;;;;;4.42;92.88;100441.19;4182639;28;19935;-87
2023/12/09 14:23:59;;;;;;;;;;;;;;;4.42;92.71;100428.66;4170039;28;19932;-84
2023/12/09 14:26:20;;;;;;;;;;;;;;;4.43;92.69;100421.47;4185246;28;19935;-82
2023/12/09 14:28:41;;;;;;;;;;;;;;;4.43;92.94;100421.47;4184300;28;19939;-86
2023/12/09 14:31:02;;;;;;;;;;;;;;;4.43;92.70;100422.31;4133343;28;20004;-83